sensor_id;sensor_type;location;lat;lon;timestamp;P1;durP1;ratioP1;P2;durP2;ratioP2
45254;SDS011;30989;52.078;21.014;2023-09-18T00:01:49;7.47;;;5.05;;
45254;SDS011;30989;52.078;21.014;2023-09-18T00:04:14;9.18;;;5.30;;
45254;SDS011;30989;52.078;21.014;2023-09-18T00:06:40;7.30;;;4.85;;
45254;SDS011;30989;52.078;21.014;2023-09-18T00:09:05;8.65;;;5.10;;
45254;SDS011;30989;52.078;21.014;2023-09-18T00:11:36;8.00;;;5.45;;
45254;SDS011;30989;52.078;21.014;2023-09-18T00:14:01;9.65;;;5.30;;
45254;SDS011;30989;52.078;21.014;2023-09-18T00:16:28;10.18;;;5.35;;
45254;SDS011;30989;52.078;21.014;2023-09-18T00:18:53;9.18;;;5.30;;
45254;SDS011;30989;52.078;21.014;2023-09-18T00:21:19;7.72;;;5.15;;
45254;SDS011;30989;52.078;21.014;2023-09-18T00:23:44;11.07;;;5.93;;
45254;SDS011;30989;52.078;21.014;2023-09-18T00:26:11;10.65;;;5.25;;
45254;SDS011;30989;52.078;21.014;2023-09-18T00:28:39;10.68;;;5.57;;
45254;SDS011;30989;52.078;21.014;2023-09-18T00:31:05;8.00;;;5.38;;
45254;SDS011;30989;52.078;21.014;2023-09-18T00:33:31;7.40;;;5.10;;
45254;SDS011;30989;52.078;21.014;2023-09-18T00:35:56;6.07;;;3.97;;
45254;SDS011;30989;52.078;21.014;2023-09-18T00:38:22;8.45;;;5.35;;
45254;SDS011;30989;52.078;21.014;2023-09-18T00:40:47;9.77;;;5.70;;
45254;SDS011;30989;52.078;21.014;2023-09-18T00:43:13;9.75;;;5.53;;
45254;SDS011;30989;52.078;21.014;2023-09-18T00:45:40;8.88;;;6.03;;
45254;SDS011;30989;52.078;21.014;2023-09-18T00:48:09;9.52;;;5.93;;
45254;SDS011;30989;52.078;21.014;2023-09-18T00:50:35;10.07;;;6.10;;
45254;SDS011;30989;52.078;21.014;2023-09-18T00:53:00;7.97;;;5.20;;
45254;SDS011;30989;52.078;21.014;2023-09-18T00:55:27;9.32;;;5.93;;
45254;SDS011;30989;52.078;21.014;2023-09-18T00:57:55;7.68;;;4.95;;
45254;SDS011;30989;52.078;21.014;2023-09-18T01:00:21;10.98;;;6.15;;
45254;SDS011;30989;52.078;21.014;2023-09-18T01:02:47;11.73;;;5.75;;
45254;SDS011;30989;52.078;21.014;2023-09-18T01:05:13;8.00;;;5.50;;
45254;SDS011;30989;52.078;21.014;2023-09-18T01:07:41;8.10;;;5.47;;
45254;SDS011;30989;52.078;21.014;2023-09-18T01:10:07;8.82;;;5.75;;
45254;SDS011;30989;52.078;21.014;2023-09-18T01:15:12;11.35;;;6.00;;
45254;SDS011;30989;52.078;21.014;2023-09-18T01:17:44;8.98;;;6.07;;
45254;SDS011;30989;52.078;21.014;2023-09-18T01:20:11;10.00;;;5.72;;
45254;SDS011;30989;52.078;21.014;2023-09-18T01:22:37;9.55;;;5.78;;
45254;SDS011;30989;52.078;21.014;2023-09-18T01:25:03;7.78;;;5.43;;
45254;SDS011;30989;52.078;21.014;2023-09-18T01:27:29;9.05;;;5.80;;
45254;SDS011;30989;52.078;21.014;2023-09-18T01:29:54;11.20;;;5.90;;
45254;SDS011;30989;52.078;21.014;2023-09-18T01:32:21;10.60;;;6.18;;
45254;SDS011;30989;52.078;21.014;2023-09-18T01:34:54;8.27;;;5.43;;
45254;SDS011;30989;52.078;21.014;2023-09-18T01:37:29;9.00;;;5.22;;
45254;SDS011;30989;52.078;21.014;2023-09-18T01:39:56;11.77;;;5.93;;
45254;SDS011;30989;52.078;21.014;2023-09-18T01:42:24;10.02;;;6.15;;
45254;SDS011;30989;52.078;21.014;2023-09-18T01:44:51;10.73;;;5.57;;
45254;SDS011;30989;52.078;21.014;2023-09-18T01:47:18;11.48;;;5.82;;
45254;SDS011;30989;52.078;21.014;2023-09-18T01:49:44;12.05;;;5.93;;
45254;SDS011;30989;52.078;21.014;2023-09-18T01:52:11;10.95;;;5.45;;
45254;SDS011;30989;52.078;21.014;2023-09-18T01:54:37;12.25;;;5.30;;
45254;SDS011;30989;52.078;21.014;2023-09-18T01:57:02;12.27;;;5.13;;
45254;SDS011;30989;52.078;21.014;2023-09-18T01:59:29;7.75;;;5.00;;
45254;SDS011;30989;52.078;21.014;2023-09-18T02:01:54;8.93;;;5.40;;
45254;SDS011;30989;52.078;21.014;2023-09-18T02:04:20;11.55;;;5.25;;
45254;SDS011;30989;52.078;21.014;2023-09-18T02:06:46;11.23;;;7.50;;
45254;SDS011;30989;52.078;21.014;2023-09-18T02:09:13;11.85;;;7.22;;
45254;SDS011;30989;52.078;21.014;2023-09-18T02:11:39;7.70;;;4.70;;
45254;SDS011;30989;52.078;21.014;2023-09-18T02:14:06;8.48;;;4.97;;
45254;SDS011;30989;52.078;21.014;2023-09-18T02:16:33;7.88;;;5.40;;
45254;SDS011;30989;52.078;21.014;2023-09-18T02:18:59;8.82;;;5.15;;
45254;SDS011;30989;52.078;21.014;2023-09-18T02:21:24;10.18;;;5.53;;
45254;SDS011;30989;52.078;21.014;2023-09-18T02:23:51;8.50;;;5.10;;
45254;SDS011;30989;52.078;21.014;2023-09-18T02:26:17;8.13;;;4.47;;
45254;SDS011;30989;52.078;21.014;2023-09-18T02:28:45;10.35;;;5.00;;
45254;SDS011;30989;52.078;21.014;2023-09-18T02:31:10;7.30;;;4.55;;
45254;SDS011;30989;52.078;21.014;2023-09-18T02:33:36;9.82;;;5.70;;
45254;SDS011;30989;52.078;21.014;2023-09-18T02:36:05;9.38;;;5.50;;
45254;SDS011;30989;52.078;21.014;2023-09-18T02:38:31;8.20;;;5.57;;
45254;SDS011;30989;52.078;21.014;2023-09-18T02:40:58;9.27;;;5.35;;
45254;SDS011;30989;52.078;21.014;2023-09-18T02:43:23;10.32;;;5.25;;
45254;SDS011;30989;52.078;21.014;2023-09-18T02:45:50;8.35;;;4.97;;
45254;SDS011;30989;52.078;21.014;2023-09-18T02:48:16;10.93;;;5.43;;
45254;SDS011;30989;52.078;21.014;2023-09-18T02:50:42;8.30;;;5.15;;
45254;SDS011;30989;52.078;21.014;2023-09-18T02:53:12;11.57;;;6.90;;
45254;SDS011;30989;52.078;21.014;2023-09-18T02:55:42;12.77;;;6.35;;
45254;SDS011;30989;52.078;21.014;2023-09-18T02:58:08;8.05;;;5.55;;
45254;SDS011;30989;52.078;21.014;2023-09-18T03:00:40;9.88;;;5.78;;
45254;SDS011;30989;52.078;21.014;2023-09-18T03:03:10;11.75;;;5.78;;
45254;SDS011;30989;52.078;21.014;2023-09-18T03:05:36;9.82;;;5.60;;
45254;SDS011;30989;52.078;21.014;2023-09-18T03:08:02;11.23;;;5.93;;
45254;SDS011;30989;52.078;21.014;2023-09-18T03:10:32;9.98;;;6.18;;
45254;SDS011;30989;52.078;21.014;2023-09-18T03:13:03;8.48;;;5.38;;
45254;SDS011;30989;52.078;21.014;2023-09-18T03:15:29;6.88;;;5.10;;
45254;SDS011;30989;52.078;21.014;2023-09-18T03:17:56;10.05;;;5.53;;
45254;SDS011;30989;52.078;21.014;2023-09-18T03:20:23;10.18;;;5.95;;
45254;SDS011;30989;52.078;21.014;2023-09-18T03:22:50;9.20;;;5.07;;
45254;SDS011;30989;52.078;21.014;2023-09-18T03:25:16;12.60;;;6.05;;
45254;SDS011;30989;52.078;21.014;2023-09-18T03:27:42;8.63;;;6.00;;
45254;SDS011;30989;52.078;21.014;2023-09-18T03:30:07;11.80;;;6.25;;
45254;SDS011;30989;52.078;21.014;2023-09-18T03:32:34;11.07;;;6.18;;
45254;SDS011;30989;52.078;21.014;2023-09-18T03:35:01;38.70;;;21.13;;
45254;SDS011;30989;52.078;21.014;2023-09-18T03:37:27;26.35;;;15.23;;
45254;SDS011;30989;52.078;21.014;2023-09-18T03:39:53;10.35;;;6.75;;
45254;SDS011;30989;52.078;21.014;2023-09-18T03:42:18;10.07;;;6.32;;
45254;SDS011;30989;52.078;21.014;2023-09-18T03:44:45;11.82;;;6.63;;
45254;SDS011;30989;52.078;21.014;2023-09-18T03:47:10;10.35;;;6.15;;
45254;SDS011;30989;52.078;21.014;2023-09-18T03:49:36;13.88;;;6.30;;
45254;SDS011;30989;52.078;21.014;2023-09-18T03:52:01;10.80;;;5.93;;
45254;SDS011;30989;52.078;21.014;2023-09-18T03:54:27;20.30;;;10.95;;
45254;SDS011;30989;52.078;21.014;2023-09-18T03:56:53;13.07;;;7.57;;
45254;SDS011;30989;52.078;21.014;2023-09-18T03:59:18;10.52;;;6.50;;
45254;SDS011;30989;52.078;21.014;2023-09-18T04:01:44;13.93;;;6.75;;
45254;SDS011;30989;52.078;21.014;2023-09-18T04:04:10;13.43;;;6.72;;
45254;SDS011;30989;52.078;21.014;2023-09-18T04:06:37;14.52;;;7.50;;
45254;SDS011;30989;52.078;21.014;2023-09-18T04:09:07;14.67;;;8.03;;
45254;SDS011;30989;52.078;21.014;2023-09-18T04:11:32;14.68;;;7.18;;
45254;SDS011;30989;52.078;21.014;2023-09-18T04:13:58;11.20;;;7.05;;
45254;SDS011;30989;52.078;21.014;2023-09-18T04:16:25;9.98;;;6.07;;
45254;SDS011;30989;52.078;21.014;2023-09-18T04:18:52;10.65;;;6.68;;
45254;SDS011;30989;52.078;21.014;2023-09-18T04:21:18;20.63;;;11.90;;
45254;SDS011;30989;52.078;21.014;2023-09-18T04:23:44;11.38;;;7.38;;
45254;SDS011;30989;52.078;21.014;2023-09-18T04:26:09;18.42;;;11.18;;
45254;SDS011;30989;52.078;21.014;2023-09-18T04:28:35;12.45;;;7.22;;
45254;SDS011;30989;52.078;21.014;2023-09-18T04:31:01;14.02;;;7.65;;
45254;SDS011;30989;52.078;21.014;2023-09-18T04:33:26;12.32;;;7.40;;
45254;SDS011;30989;52.078;21.014;2023-09-18T04:35:54;9.68;;;6.25;;
45254;SDS011;30989;52.078;21.014;2023-09-18T04:38:19;9.63;;;6.50;;
45254;SDS011;30989;52.078;21.014;2023-09-18T04:40:45;12.18;;;7.53;;
45254;SDS011;30989;52.078;21.014;2023-09-18T04:43:11;10.45;;;6.78;;
45254;SDS011;30989;52.078;21.014;2023-09-18T04:45:37;10.85;;;6.88;;
45254;SDS011;30989;52.078;21.014;2023-09-18T04:48:02;13.77;;;7.95;;
45254;SDS011;30989;52.078;21.014;2023-09-18T04:50:31;10.95;;;6.72;;
45254;SDS011;30989;52.078;21.014;2023-09-18T04:52:59;11.13;;;7.22;;
45254;SDS011;30989;52.078;21.014;2023-09-18T04:55:25;12.68;;;7.15;;
45254;SDS011;30989;52.078;21.014;2023-09-18T04:57:51;12.00;;;6.80;;
45254;SDS011;30989;52.078;21.014;2023-09-18T05:00:16;16.17;;;7.07;;
45254;SDS011;30989;52.078;21.014;2023-09-18T05:02:42;11.73;;;7.45;;
45254;SDS011;30989;52.078;21.014;2023-09-18T05:05:08;8.70;;;5.63;;
45254;SDS011;30989;52.078;21.014;2023-09-18T05:07:34;12.82;;;7.47;;
45254;SDS011;30989;52.078;21.014;2023-09-18T05:10:00;10.55;;;6.72;;
45254;SDS011;30989;52.078;21.014;2023-09-18T05:12:25;12.23;;;7.05;;
45254;SDS011;30989;52.078;21.014;2023-09-18T05:14:51;11.07;;;7.07;;
45254;SDS011;30989;52.078;21.014;2023-09-18T05:17:17;15.27;;;7.20;;
45254;SDS011;30989;52.078;21.014;2023-09-18T05:19:46;10.93;;;7.15;;
45254;SDS011;30989;52.078;21.014;2023-09-18T05:22:12;9.75;;;6.35;;
45254;SDS011;30989;52.078;21.014;2023-09-18T05:24:40;10.45;;;6.45;;
45254;SDS011;30989;52.078;21.014;2023-09-18T05:27:06;19.92;;;7.43;;
45254;SDS011;30989;52.078;21.014;2023-09-18T05:29:33;10.38;;;6.28;;
45254;SDS011;30989;52.078;21.014;2023-09-18T05:32:01;10.63;;;6.85;;
45254;SDS011;30989;52.078;21.014;2023-09-18T05:34:27;12.63;;;7.53;;
45254;SDS011;30989;52.078;21.014;2023-09-18T05:36:52;10.65;;;6.82;;
45254;SDS011;30989;52.078;21.014;2023-09-18T05:39:18;12.43;;;7.53;;
45254;SDS011;30989;52.078;21.014;2023-09-18T05:41:43;13.93;;;7.95;;
45254;SDS011;30989;52.078;21.014;2023-09-18T05:44:09;12.73;;;7.80;;
45254;SDS011;30989;52.078;21.014;2023-09-18T05:46:35;13.63;;;7.43;;
45254;SDS011;30989;52.078;21.014;2023-09-18T05:49:00;10.98;;;7.30;;
45254;SDS011;30989;52.078;21.014;2023-09-18T05:51:26;11.98;;;7.20;;
45254;SDS011;30989;52.078;21.014;2023-09-18T05:53:52;12.63;;;7.25;;
45254;SDS011;30989;52.078;21.014;2023-09-18T05:56:18;13.10;;;7.85;;
45254;SDS011;30989;52.078;21.014;2023-09-18T05:58:43;14.23;;;7.72;;
45254;SDS011;30989;52.078;21.014;2023-09-18T06:01:09;10.63;;;6.50;;
45254;SDS011;30989;52.078;21.014;2023-09-18T06:03:34;10.85;;;7.18;;
45254;SDS011;30989;52.078;21.014;2023-09-18T06:06:04;15.20;;;7.60;;
45254;SDS011;30989;52.078;21.014;2023-09-18T06:08:30;12.48;;;7.68;;
45254;SDS011;30989;52.078;21.014;2023-09-18T06:10:59;15.77;;;7.93;;
45254;SDS011;30989;52.078;21.014;2023-09-18T06:13:24;14.15;;;6.80;;
45254;SDS011;30989;52.078;21.014;2023-09-18T06:15:51;12.27;;;7.63;;
45254;SDS011;30989;52.078;21.014;2023-09-18T06:18:19;11.25;;;7.90;;
45254;SDS011;30989;52.078;21.014;2023-09-18T06:20:48;15.02;;;8.75;;
45254;SDS011;30989;52.078;21.014;2023-09-18T06:23:14;13.85;;;7.88;;
45254;SDS011;30989;52.078;21.014;2023-09-18T06:25:40;14.50;;;7.63;;
45254;SDS011;30989;52.078;21.014;2023-09-18T06:28:06;15.18;;;8.02;;
45254;SDS011;30989;52.078;21.014;2023-09-18T06:30:32;13.40;;;7.05;;
45254;SDS011;30989;52.078;21.014;2023-09-18T06:33:01;11.60;;;7.20;;
45254;SDS011;30989;52.078;21.014;2023-09-18T06:35:27;14.75;;;7.78;;
45254;SDS011;30989;52.078;21.014;2023-09-18T06:37:52;13.98;;;8.20;;
45254;SDS011;30989;52.078;21.014;2023-09-18T06:40:20;12.23;;;7.80;;
45254;SDS011;30989;52.078;21.014;2023-09-18T06:42:45;13.82;;;8.32;;
45254;SDS011;30989;52.078;21.014;2023-09-18T06:45:11;12.95;;;7.32;;
45254;SDS011;30989;52.078;21.014;2023-09-18T06:47:37;11.32;;;7.40;;
45254;SDS011;30989;52.078;21.014;2023-09-18T06:50:06;10.32;;;6.72;;
45254;SDS011;30989;52.078;21.014;2023-09-18T06:52:31;10.55;;;6.72;;
45254;SDS011;30989;52.078;21.014;2023-09-18T06:54:57;12.65;;;7.38;;
45254;SDS011;30989;52.078;21.014;2023-09-18T06:57:25;11.60;;;7.32;;
45254;SDS011;30989;52.078;21.014;2023-09-18T06:59:50;11.65;;;7.20;;
45254;SDS011;30989;52.078;21.014;2023-09-18T07:02:16;13.73;;;6.85;;
45254;SDS011;30989;52.078;21.014;2023-09-18T07:04:42;8.85;;;6.55;;
45254;SDS011;30989;52.078;21.014;2023-09-18T07:07:11;11.88;;;6.80;;
45254;SDS011;30989;52.078;21.014;2023-09-18T07:09:38;14.90;;;7.70;;
45254;SDS011;30989;52.078;21.014;2023-09-18T07:12:03;12.88;;;7.32;;
45254;SDS011;30989;52.078;21.014;2023-09-18T07:14:29;17.73;;;7.47;;
45254;SDS011;30989;52.078;21.014;2023-09-18T07:16:56;16.17;;;8.05;;
45254;SDS011;30989;52.078;21.014;2023-09-18T07:19:21;11.65;;;7.22;;
45254;SDS011;30989;52.078;21.014;2023-09-18T07:21:47;12.65;;;7.43;;
45254;SDS011;30989;52.078;21.014;2023-09-18T07:24:12;12.18;;;6.65;;
45254;SDS011;30989;52.078;21.014;2023-09-18T07:26:45;9.25;;;5.88;;
45254;SDS011;30989;52.078;21.014;2023-09-18T07:29:13;10.45;;;6.75;;
45254;SDS011;30989;52.078;21.014;2023-09-18T07:31:40;12.35;;;7.00;;
45254;SDS011;30989;52.078;21.014;2023-09-18T07:34:08;10.30;;;6.45;;
45254;SDS011;30989;52.078;21.014;2023-09-18T07:36:35;12.00;;;7.60;;
45254;SDS011;30989;52.078;21.014;2023-09-18T07:39:00;12.18;;;6.78;;
45254;SDS011;30989;52.078;21.014;2023-09-18T07:41:26;12.13;;;6.75;;
45254;SDS011;30989;52.078;21.014;2023-09-18T07:43:51;10.82;;;6.72;;
45254;SDS011;30989;52.078;21.014;2023-09-18T07:46:17;11.80;;;6.55;;
45254;SDS011;30989;52.078;21.014;2023-09-18T07:48:42;12.27;;;6.82;;
45254;SDS011;30989;52.078;21.014;2023-09-18T07:51:11;42.80;;;22.23;;
45254;SDS011;30989;52.078;21.014;2023-09-18T07:53:37;15.95;;;9.70;;
45254;SDS011;30989;52.078;21.014;2023-09-18T07:56:03;9.25;;;6.35;;
45254;SDS011;30989;52.078;21.014;2023-09-18T07:58:32;12.20;;;6.40;;
45254;SDS011;30989;52.078;21.014;2023-09-18T08:00:58;9.40;;;5.70;;
45254;SDS011;30989;52.078;21.014;2023-09-18T08:03:24;12.20;;;6.63;;
45254;SDS011;30989;52.078;21.014;2023-09-18T08:05:51;11.52;;;6.30;;
45254;SDS011;30989;52.078;21.014;2023-09-18T08:08:18;8.50;;;5.75;;
45254;SDS011;30989;52.078;21.014;2023-09-18T08:10:45;15.65;;;5.75;;
45254;SDS011;30989;52.078;21.014;2023-09-18T08:13:11;11.05;;;6.03;;
45254;SDS011;30989;52.078;21.014;2023-09-18T08:15:37;9.85;;;6.25;;
45254;SDS011;30989;52.078;21.014;2023-09-18T08:18:03;11.63;;;6.93;;
45254;SDS011;30989;52.078;21.014;2023-09-18T08:20:28;22.20;;;12.00;;
45254;SDS011;30989;52.078;21.014;2023-09-18T08:22:54;13.07;;;7.38;;
45254;SDS011;30989;52.078;21.014;2023-09-18T08:25:19;8.82;;;6.47;;
45254;SDS011;30989;52.078;21.014;2023-09-18T08:27:45;10.75;;;6.25;;
45254;SDS011;30989;52.078;21.014;2023-09-18T08:30:12;8.65;;;6.07;;
45254;SDS011;30989;52.078;21.014;2023-09-18T08:32:38;12.15;;;5.75;;
45254;SDS011;30989;52.078;21.014;2023-09-18T08:35:05;8.20;;;5.85;;
45254;SDS011;30989;52.078;21.014;2023-09-18T08:37:31;9.55;;;6.10;;
45254;SDS011;30989;52.078;21.014;2023-09-18T08:39:56;10.43;;;7.25;;
45254;SDS011;30989;52.078;21.014;2023-09-18T08:42:22;9.85;;;6.30;;
45254;SDS011;30989;52.078;21.014;2023-09-18T08:44:49;8.98;;;5.95;;
45254;SDS011;30989;52.078;21.014;2023-09-18T08:47:17;8.88;;;6.05;;
45254;SDS011;30989;52.078;21.014;2023-09-18T08:49:44;9.20;;;5.63;;
45254;SDS011;30989;52.078;21.014;2023-09-18T08:52:13;10.65;;;5.47;;
45254;SDS011;30989;52.078;21.014;2023-09-18T08:54:40;9.13;;;5.97;;
45254;SDS011;30989;52.078;21.014;2023-09-18T08:57:05;7.35;;;4.60;;
45254;SDS011;30989;52.078;21.014;2023-09-18T08:59:33;8.43;;;5.60;;
45254;SDS011;30989;52.078;21.014;2023-09-18T09:02:00;6.85;;;4.80;;
45254;SDS011;30989;52.078;21.014;2023-09-18T09:04:26;7.60;;;5.20;;
45254;SDS011;30989;52.078;21.014;2023-09-18T09:06:52;12.45;;;8.60;;
45254;SDS011;30989;52.078;21.014;2023-09-18T09:09:17;9.68;;;5.82;;
45254;SDS011;30989;52.078;21.014;2023-09-18T09:11:50;7.40;;;4.97;;
45254;SDS011;30989;52.078;21.014;2023-09-18T09:14:16;7.03;;;4.95;;
45254;SDS011;30989;52.078;21.014;2023-09-18T09:16:52;8.10;;;4.55;;
45254;SDS011;30989;52.078;21.014;2023-09-18T09:19:27;8.50;;;5.00;;
45254;SDS011;30989;52.078;21.014;2023-09-18T09:21:55;6.50;;;4.35;;
45254;SDS011;30989;52.078;21.014;2023-09-18T09:24:41;7.53;;;4.15;;
45254;SDS011;30989;52.078;21.014;2023-09-18T09:27:08;8.77;;;4.82;;
45254;SDS011;30989;52.078;21.014;2023-09-18T09:29:34;9.48;;;4.60;;
45254;SDS011;30989;52.078;21.014;2023-09-18T09:32:13;6.45;;;4.43;;
45254;SDS011;30989;52.078;21.014;2023-09-18T09:34:40;7.10;;;4.07;;
45254;SDS011;30989;52.078;21.014;2023-09-18T09:37:06;7.82;;;3.70;;
45254;SDS011;30989;52.078;21.014;2023-09-18T09:39:32;12.23;;;6.55;;
45254;SDS011;30989;52.078;21.014;2023-09-18T09:42:02;7.90;;;4.55;;
45254;SDS011;30989;52.078;21.014;2023-09-18T09:44:31;5.20;;;3.80;;
45254;SDS011;30989;52.078;21.014;2023-09-18T09:46:57;8.00;;;4.03;;
45254;SDS011;30989;52.078;21.014;2023-09-18T09:49:24;7.13;;;4.35;;
45254;SDS011;30989;52.078;21.014;2023-09-18T09:51:54;5.28;;;3.75;;
45254;SDS011;30989;52.078;21.014;2023-09-18T09:54:31;7.22;;;4.45;;
45254;SDS011;30989;52.078;21.014;2023-09-18T09:57:01;5.47;;;3.67;;
45254;SDS011;30989;52.078;21.014;2023-09-18T09:59:28;6.50;;;3.22;;
45254;SDS011;30989;52.078;21.014;2023-09-18T10:01:54;8.57;;;3.53;;
45254;SDS011;30989;52.078;21.014;2023-09-18T10:04:23;4.88;;;3.10;;
45254;SDS011;30989;52.078;21.014;2023-09-18T10:06:53;5.35;;;3.15;;
45254;SDS011;30989;52.078;21.014;2023-09-18T10:09:23;5.15;;;3.30;;
45254;SDS011;30989;52.078;21.014;2023-09-18T10:11:54;4.80;;;3.22;;
45254;SDS011;30989;52.078;21.014;2023-09-18T10:14:32;6.28;;;3.42;;
45254;SDS011;30989;52.078;21.014;2023-09-18T10:17:12;8.43;;;3.42;;
45254;SDS011;30989;52.078;21.014;2023-09-18T10:23:30;10.87;;;6.80;;
45254;SDS011;30989;52.078;21.014;2023-09-18T10:25:28;6.97;;;3.42;;
45254;SDS011;30989;52.078;21.014;2023-09-18T10:27:56;5.43;;;3.40;;
45254;SDS011;30989;52.078;21.014;2023-09-18T10:30:23;5.05;;;3.40;;
45254;SDS011;30989;52.078;21.014;2023-09-18T10:32:50;5.38;;;3.35;;
45254;SDS011;30989;52.078;21.014;2023-09-18T10:35:16;4.60;;;3.13;;
45254;SDS011;30989;52.078;21.014;2023-09-18T10:37:43;6.80;;;3.10;;
45254;SDS011;30989;52.078;21.014;2023-09-18T10:40:09;4.72;;;3.42;;
45254;SDS011;30989;52.078;21.014;2023-09-18T10:42:35;5.35;;;3.70;;
45254;SDS011;30989;52.078;21.014;2023-09-18T10:45:03;4.85;;;3.03;;
45254;SDS011;30989;52.078;21.014;2023-09-18T10:47:30;5.13;;;3.30;;
45254;SDS011;30989;52.078;21.014;2023-09-18T10:49:56;4.75;;;3.13;;
45254;SDS011;30989;52.078;21.014;2023-09-18T10:52:22;5.93;;;3.13;;
45254;SDS011;30989;52.078;21.014;2023-09-18T10:54:47;5.43;;;3.17;;
45254;SDS011;30989;52.078;21.014;2023-09-18T10:57:13;4.25;;;3.25;;
45254;SDS011;30989;52.078;21.014;2023-09-18T10:59:45;4.47;;;2.90;;
45254;SDS011;30989;52.078;21.014;2023-09-18T11:02:13;4.70;;;2.67;;
45254;SDS011;30989;52.078;21.014;2023-09-18T11:04:41;4.43;;;2.78;;
45254;SDS011;30989;52.078;21.014;2023-09-18T11:07:07;3.88;;;2.75;;
45254;SDS011;30989;52.078;21.014;2023-09-18T11:09:43;5.03;;;3.15;;
45254;SDS011;30989;52.078;21.014;2023-09-18T11:12:10;5.38;;;3.28;;
45254;SDS011;30989;52.078;21.014;2023-09-18T11:14:49;4.32;;;2.80;;
45254;SDS011;30989;52.078;21.014;2023-09-18T11:17:28;6.65;;;2.78;;
45254;SDS011;30989;52.078;21.014;2023-09-18T11:20:03;5.70;;;3.05;;
45254;SDS011;30989;52.078;21.014;2023-09-18T11:22:40;5.68;;;2.88;;
45254;SDS011;30989;52.078;21.014;2023-09-18T11:27:55;4.30;;;2.80;;
45254;SDS011;30989;52.078;21.014;2023-09-18T11:30:23;5.38;;;2.85;;
45254;SDS011;30989;52.078;21.014;2023-09-18T11:32:49;3.85;;;2.45;;
45254;SDS011;30989;52.078;21.014;2023-09-18T11:35:16;6.57;;;3.45;;
45254;SDS011;30989;52.078;21.014;2023-09-18T11:37:43;4.38;;;3.17;;
45254;SDS011;30989;52.078;21.014;2023-09-18T11:43:20;5.00;;;3.13;;
45254;SDS011;30989;52.078;21.014;2023-09-18T11:45:53;4.72;;;3.20;;
45254;SDS011;30989;52.078;21.014;2023-09-18T11:48:20;11.60;;;2.97;;
45254;SDS011;30989;52.078;21.014;2023-09-18T11:50:49;3.83;;;2.60;;
45254;SDS011;30989;52.078;21.014;2023-09-18T11:53:17;5.60;;;3.20;;
45254;SDS011;30989;52.078;21.014;2023-09-18T11:55:44;8.02;;;3.40;;
45254;SDS011;30989;52.078;21.014;2023-09-18T11:58:09;5.28;;;3.58;;
45254;SDS011;30989;52.078;21.014;2023-09-18T12:00:35;7.30;;;3.28;;
45254;SDS011;30989;52.078;21.014;2023-09-18T12:03:17;5.43;;;3.15;;
45254;SDS011;30989;52.078;21.014;2023-09-18T12:05:57;4.32;;;2.97;;
45254;SDS011;30989;52.078;21.014;2023-09-18T12:08:24;4.68;;;3.20;;
45254;SDS011;30989;52.078;21.014;2023-09-18T12:10:52;6.50;;;3.72;;
45254;SDS011;30989;52.078;21.014;2023-09-18T12:13:18;4.57;;;2.80;;
45254;SDS011;30989;52.078;21.014;2023-09-18T12:15:44;4.32;;;2.78;;
45254;SDS011;30989;52.078;21.014;2023-09-18T12:18:10;6.90;;;2.80;;
45254;SDS011;30989;52.078;21.014;2023-09-18T12:20:48;5.40;;;2.93;;
45254;SDS011;30989;52.078;21.014;2023-09-18T12:23:15;4.35;;;3.00;;
45254;SDS011;30989;52.078;21.014;2023-09-18T12:25:41;5.38;;;3.25;;
45254;SDS011;30989;52.078;21.014;2023-09-18T12:28:10;5.30;;;2.95;;
45254;SDS011;30989;52.078;21.014;2023-09-18T12:30:36;5.78;;;3.00;;
45254;SDS011;30989;52.078;21.014;2023-09-18T12:33:01;4.22;;;2.97;;
45254;SDS011;30989;52.078;21.014;2023-09-18T12:35:29;6.28;;;3.35;;
45254;SDS011;30989;52.078;21.014;2023-09-18T12:37:58;5.40;;;3.00;;
45254;SDS011;30989;52.078;21.014;2023-09-18T12:40:30;3.70;;;2.70;;
45254;SDS011;30989;52.078;21.014;2023-09-18T12:42:59;6.35;;;3.22;;
45254;SDS011;30989;52.078;21.014;2023-09-18T12:45:26;7.68;;;3.22;;
45254;SDS011;30989;52.078;21.014;2023-09-18T12:47:54;3.97;;;2.92;;
45254;SDS011;30989;52.078;21.014;2023-09-18T12:50:21;5.10;;;3.25;;
45254;SDS011;30989;52.078;21.014;2023-09-18T12:52:46;8.57;;;3.47;;
45254;SDS011;30989;52.078;21.014;2023-09-18T12:55:24;5.47;;;3.47;;
45254;SDS011;30989;52.078;21.014;2023-09-18T12:57:53;7.85;;;3.78;;
45254;SDS011;30989;52.078;21.014;2023-09-18T13:00:19;5.20;;;3.55;;
45254;SDS011;30989;52.078;21.014;2023-09-18T13:02:48;5.25;;;3.03;;
45254;SDS011;30989;52.078;21.014;2023-09-18T13:05:20;6.57;;;3.08;;
45254;SDS011;30989;52.078;21.014;2023-09-18T13:07:50;5.95;;;3.28;;
45254;SDS011;30989;52.078;21.014;2023-09-18T13:10:15;5.05;;;3.70;;
45254;SDS011;30989;52.078;21.014;2023-09-18T13:12:51;5.85;;;3.65;;
45254;SDS011;30989;52.078;21.014;2023-09-18T13:15:31;6.10;;;4.15;;
45254;SDS011;30989;52.078;21.014;2023-09-18T13:17:58;4.97;;;3.60;;
45254;SDS011;30989;52.078;21.014;2023-09-18T13:20:28;6.50;;;4.10;;
45254;SDS011;30989;52.078;21.014;2023-09-18T13:22:55;5.25;;;3.13;;
45254;SDS011;30989;52.078;21.014;2023-09-18T13:25:22;8.15;;;3.30;;
45254;SDS011;30989;52.078;21.014;2023-09-18T13:27:49;6.57;;;3.17;;
45254;SDS011;30989;52.078;21.014;2023-09-18T13:30:16;4.45;;;3.50;;
45254;SDS011;30989;52.078;21.014;2023-09-18T13:32:43;4.90;;;3.28;;
45254;SDS011;30989;52.078;21.014;2023-09-18T13:35:09;4.65;;;3.20;;
45254;SDS011;30989;52.078;21.014;2023-09-18T13:37:37;5.35;;;3.53;;
45254;SDS011;30989;52.078;21.014;2023-09-18T13:40:04;8.35;;;5.95;;
45254;SDS011;30989;52.078;21.014;2023-09-18T13:42:34;4.30;;;3.33;;
45254;SDS011;30989;52.078;21.014;2023-09-18T13:45:03;5.13;;;3.07;;
45254;SDS011;30989;52.078;21.014;2023-09-18T13:47:31;22.02;;;14.43;;
45254;SDS011;30989;52.078;21.014;2023-09-18T13:49:57;8.48;;;3.72;;
45254;SDS011;30989;52.078;21.014;2023-09-18T13:52:27;7.07;;;3.60;;
45254;SDS011;30989;52.078;21.014;2023-09-18T13:54:57;7.88;;;3.53;;
45254;SDS011;30989;52.078;21.014;2023-09-18T13:57:23;5.63;;;3.53;;
45254;SDS011;30989;52.078;21.014;2023-09-18T13:59:49;4.78;;;3.55;;
45254;SDS011;30989;52.078;21.014;2023-09-18T14:02:16;5.65;;;3.58;;
45254;SDS011;30989;52.078;21.014;2023-09-18T14:04:42;5.07;;;3.55;;
45254;SDS011;30989;52.078;21.014;2023-09-18T14:07:08;8.10;;;2.83;;
45254;SDS011;30989;52.078;21.014;2023-09-18T14:09:36;4.35;;;3.05;;
45254;SDS011;30989;52.078;21.014;2023-09-18T14:12:01;9.55;;;5.22;;
45254;SDS011;30989;52.078;21.014;2023-09-18T14:16:57;5.75;;;3.50;;
45254;SDS011;30989;52.078;21.014;2023-09-18T14:19:22;7.78;;;3.85;;
45254;SDS011;30989;52.078;21.014;2023-09-18T14:21:48;4.50;;;3.22;;
45254;SDS011;30989;52.078;21.014;2023-09-18T14:24:14;5.65;;;2.90;;
45254;SDS011;30989;52.078;21.014;2023-09-18T14:26:43;4.80;;;3.10;;
45254;SDS011;30989;52.078;21.014;2023-09-18T14:29:10;5.57;;;3.50;;
45254;SDS011;30989;52.078;21.014;2023-09-18T14:31:36;8.18;;;3.78;;
45254;SDS011;30989;52.078;21.014;2023-09-18T14:34:02;7.30;;;4.00;;
45254;SDS011;30989;52.078;21.014;2023-09-18T14:36:29;5.00;;;3.60;;
45254;SDS011;30989;52.078;21.014;2023-09-18T14:38:55;4.43;;;3.15;;
45254;SDS011;30989;52.078;21.014;2023-09-18T14:41:23;8.35;;;3.70;;
45254;SDS011;30989;52.078;21.014;2023-09-18T14:43:50;7.43;;;3.72;;